Time;durP1;ratioP1;P1;durP2;ratioP2;P2;SDS_P1;SDS_P2;PMS_P1;PMS_P2;Temp;Humidity;BMP_temperature;BMP_pressure;BME280_temperature;BME280_humidity;BME280_pressure;Samples;Min_cycle;Max_cycle;Signal;HPM_P1;HPM_P2
2021/06/06 00:01:00;;;;;;;11.30;5.88;;;;;;;30.01;57.31;100769.31;5069967;27;69044;-35
2021/06/06 00:03:41;;;;;;;6.10;5.45;;;;;;;29.67;57.84;100708.38;5072819;27;66263;-35
2021/06/06 00:06:34;;;;;;;9.90;5.68;;;;;;;29.77;58.20;100735.75;5071084;27;69860;-35
2021/06/06 00:09:12;;;;;;;10.73;5.97;;;;;;;30.10;56.36;100778.00;5074319;28;65420;-35
2021/06/06 00:12:03;;;;;;;6.05;5.32;;;;;;;30.09;57.50;100781.75;5070209;28;69281;-35
2021/06/06 00:14:37;;;;;;;14.45;5.88;;;;;;;29.89;56.92;100740.47;5073383;28;66067;-36
2021/06/06 00:17:11;;;;;;;17.45;6.65;;;;;;;29.89;57.51;100721.53;5069043;28;69974;-37
2021/06/06 00:19:43;;;;;;;27.00;6.38;;;;;;;30.35;58.44;100796.19;5074776;28;66730;-36
2021/06/06 00:22:15;;;;;;;12.75;5.72;;;;;;;30.40;59.69;100802.59;5067171;28;69614;-37
2021/06/06 00:24:47;;;;;;;22.38;5.93;;;;;;;30.46;59.83;100798.19;5069018;27;66571;-37
2021/06/06 00:27:18;;;;;;;23.98;6.82;;;;;;;30.50;58.59;100802.94;5063467;28;69581;-36
2021/06/06 00:29:50;;;;;;;20.83;6.60;;;;;;;30.55;59.25;100802.28;5068445;28;65314;-36
2021/06/06 00:32:22;;;;;;;12.20;6.45;;;;;;;30.50;60.00;100783.97;5070702;28;69793;-37
2021/06/06 00:34:54;;;;;;;;;;;;;;;30.45;62.13;100799.22;5070910;28;66147;-36
2021/06/06 00:37:25;;;;;;;13.93;6.55;;;;;;;30.67;59.19;100799.69;5064440;28;70789;-36
2021/06/06 00:39:59;;;;;;;17.95;6.85;;;;;;;30.71;60.52;100804.44;5070136;28;66745;-36
2021/06/06 00:42:31;;;;;;;8.32;6.20;;;;;;;30.74;61.28;100803.19;5076870;28;70073;-36
2021/06/06 00:45:09;;;;;;;12.35;6.68;;;;;;;30.81;60.97;100816.69;5075799;27;65140;-38
2021/06/06 00:47:42;;;;;;;23.08;6.25;;;;;;;30.71;60.46;100796.31;5075690;28;69923;-38
2021/06/06 00:50:22;;;;;;;11.18;6.20;;;;;;;30.87;62.31;100810.38;5076233;28;66000;-39
2021/06/06 00:52:57;;;;;;;12.07;6.32;;;;;;;30.89;61.66;100802.84;5075395;28;70206;-39
2021/06/06 00:55:32;;;;;;;12.90;7.15;;;;;;;30.86;62.95;100808.72;5075152;28;64788;-40
2021/06/06 00:58:09;;;;;;;7.95;6.95;;;;;;;30.95;63.60;100829.06;5067440;27;69294;-39
2021/06/06 01:00:47;;;;;;;7.43;6.47;;;;;;;30.95;63.75;100812.78;5070010;28;66277;-40
2021/06/06 01:03:23;;;;;;;6.78;6.18;;;;;;;30.59;63.43;100762.91;5074323;28;70039;-37
2021/06/06 01:06:11;;;;;;;12.32;6.85;;;;;;;30.97;64.19;100821.53;5085330;27;66457;-37
2021/06/06 01:08:47;;;;;;;18.05;6.97;;;;;;;31.01;63.68;100817.34;5076680;28;69800;-37
2021/06/06 01:11:26;;;;;;;10.30;6.57;;;;;;;30.78;63.82;100776.47;5074869;28;65134;-38
2021/06/06 01:14:07;;;;;;;8.95;6.55;;;;;;;31.10;63.84;100821.41;5070527;27;69538;-38
2021/06/06 01:17:03;;;;;;;14.77;7.55;;;;;;;30.79;63.85;100761.91;5071522;28;66177;-39
2021/06/06 01:19:44;;;;;;;7.50;6.50;;;;;;;31.16;64.33;100822.41;5073266;28;69283;-38
2021/06/06 01:22:52;;;;;;;7.05;6.35;;;;;;;31.14;64.08;100809.06;5074926;27;65288;-37
2021/06/06 01:25:44;;;;;;;16.88;7.28;;;;;;;31.16;64.52;100812.41;5072474;28;69260;-34
2021/06/06 01:28:26;;;;;;;16.67;7.97;;;;;;;31.28;64.50;100817.91;5072619;28;65990;-35
2021/06/06 01:31:01;;;;;;;27.88;9.65;;;;;;;31.34;63.95;100816.16;5069127;27;70175;-35
2021/06/06 01:33:47;;;;;;;20.75;10.57;;;;;;;31.35;64.21;100821.38;5073798;27;65347;-35
2021/06/06 01:36:31;;;;;;;19.95;10.75;;;;;;;31.42;64.18;100818.63;5069262;28;70215;-35
2021/06/06 01:39:46;;;;;;;14.30;10.00;;;;;;;31.34;64.76;100817.03;5071651;27;66502;-36
2021/06/06 01:42:37;;;;;;;20.33;9.75;;;;;;;31.39;64.62;100809.03;5068428;28;69941;-35
2021/06/06 01:45:25;;;;;;;20.55;9.45;;;;;;;31.33;64.11;100795.53;5069283;28;65803;-35
2021/06/06 01:48:05;;;;;;;11.35;8.18;;;;;;;31.43;63.52;100793.19;5067070;28;70769;-35
2021/06/06 01:50:52;;;;;;;18.13;9.43;;;;;;;31.52;64.34;100797.22;5072841;27;66194;-36
2021/06/06 01:53:27;;;;;;;12.93;8.80;;;;;;;31.27;64.88;100755.81;5069923;28;69436;-35
2021/06/06 01:56:06;;;;;;;18.20;9.48;;;;;;;31.65;64.78;100822.53;5066573;28;65977;-37
2021/06/06 01:58:55;;;;;;;26.13;9.10;;;;;;;31.59;65.45;100803.41;5069652;28;69886;-37
2021/06/06 02:01:35;;;;;;;17.65;8.82;;;;;;;31.67;65.22;100817.72;5074805;27;65816;-36
2021/06/06 02:04:08;;;;;;;16.95;8.60;;;;;;;31.50;64.25;100791.19;5068429;27;70280;-37
2021/06/06 02:07:01;;;;;;;22.20;8.75;;;;;;;31.70;65.52;100817.25;5073234;27;66163;-38
2021/06/06 02:10:09;;;;;;;16.13;8.90;;;;;;;31.73;65.45;100819.50;5070055;28;69181;-38
2021/06/06 02:12:50;;;;;;;13.43;8.50;;;;;;;31.79;65.43;100807.75;5075703;27;66022;-39
2021/06/06 02:15:26;;;;;;;20.25;8.88;;;;;;;31.74;65.03;100792.16;5072430;27;70097;-38
2021/06/06 02:18:16;;;;;;;13.90;8.10;;;;;;;31.79;65.25;100807.75;5070422;28;66260;-39
2021/06/06 02:20:50;;;;;;;10.43;8.07;;;;;;;31.85;64.62;100800.59;5069234;27;69728;-42
2021/06/06 02:23:34;;;;;;;14.02;7.55;;;;;;;31.64;64.61;100767.47;5072413;28;66547;-39
2021/06/06 02:26:38;;;;;;;16.13;8.05;;;;;;;31.87;64.42;100815.56;5073481;28;69599;-39
2021/06/06 02:29:29;;;;;;;11.30;8.80;;;;;;;31.92;64.73;100807.59;5066929;28;66533;-39
2021/06/06 02:32:32;;;;;;;12.70;7.90;;;;;;;31.91;64.53;100789.69;5070067;28;69823;-39
2021/06/06 02:35:28;;;;;;;11.50;7.32;;;;;;;31.99;64.20;100802.94;5068400;28;65814;-39
2021/06/06 02:38:09;;;;;;;11.35;6.75;;;;;;;32.03;63.73;100790.53;5073926;27;69819;-44
2021/06/06 02:41:18;;;;;;;13.45;6.90;;;;;;;31.98;63.95;100787.72;5074611;28;66000;-39
2021/06/06 02:44:27;;;;;;;8.82;6.53;;;;;;;32.03;64.28;100776.97;5066780;28;70068;-39
2021/06/06 02:47:11;;;;;;;7.03;6.32;;;;;;;32.15;63.17;100779.75;5070509;28;65618;-39
2021/06/06 02:49:49;;;;;;;6.93;6.43;;;;;;;31.96;63.07;100738.28;5090610;27;70467;-39
2021/06/06 02:52:44;;;;;;;11.48;6.22;;;;;;;32.24;62.62;100772.09;5071773;28;66410;-38
2021/06/06 02:55:30;;;;;;;11.27;5.68;;;;;;;31.95;62.87;100723.03;5050781;28;70177;-39
2021/06/06 02:58:19;;;;;;;14.70;5.95;;;;;;;32.31;62.27;100767.38;5072063;27;66407;-39
2021/06/06 03:01:08;;;;;;;10.43;5.43;;;;;;;32.30;62.18;100768.44;5050985;28;69512;-38
2021/06/06 03:03:45;;;;;;;5.50;5.10;;;;;;;32.11;59.41;100756.00;5047487;28;66170;-38
2021/06/06 03:06:37;;;;;;;5.68;5.15;;;;;;;32.03;57.35;100765.31;5085016;27;69171;-38
2021/06/06 03:09:11;;;;;;;6.75;4.95;;;;;;;31.83;55.07;100750.09;5068998;28;65427;-37
2021/06/06 03:11:54;;;;;;;5.28;4.88;;;;;;;31.64;54.01;100751.19;5071098;28;69423;-38
2021/06/06 03:14:31;;;;;;;4.70;4.30;;;;;;;31.53;54.84;100750.06;5070031;28;65847;-39
2021/06/06 03:17:15;;;;;;;9.18;4.80;;;;;;;31.41;52.35;100741.06;5066869;28;69904;-39
2021/06/06 03:20:00;;;;;;;4.65;4.25;;;;;;;30.99;50.55;100678.59;5065852;28;67038;-39
2021/06/06 03:22:43;;;;;;;10.52;4.82;;;;;;;31.14;50.13;100725.06;5050872;28;70260;-37
2021/06/06 03:25:41;;;;;;;4.30;3.90;;;;;;;30.99;49.28;100731.94;5070085;28;67087;-37
2021/06/06 03:28:24;;;;;;;4.38;4.05;;;;;;;30.97;48.57;100740.28;5070008;28;70338;-39
2021/06/06 03:31:06;;;;;;;4.82;4.20;;;;;;;30.91;48.25;100741.19;5068054;27;65851;-40
2021/06/06 03:34:14;;;;;;;13.65;3.90;;;;;;;30.68;46.46;100720.97;5064612;28;70320;-39
2021/06/06 03:36:52;;;;;;;4.47;4.18;;;;;;;30.72;47.30;100738.41;5072093;27;65941;-38
2021/06/06 03:39:40;;;;;;;5.80;4.32;;;;;;;30.61;49.45;100725.59;5062203;28;69482;-38
2021/06/06 03:42:22;;;;;;;9.02;4.82;;;;;;;30.36;49.14;100679.59;5076339;28;66122;-36
2021/06/06 03:44:59;;;;;;;20.05;4.45;;;;;;;30.59;47.97;100733.13;5045149;28;69250;-37
2021/06/06 03:47:31;;;;;;;6.10;5.07;;;;;;;30.56;48.21;100741.66;5045994;28;66078;-37
2021/06/06 03:50:07;;;;;;;7.15;4.90;;;;;;;30.55;47.96;100742.72;5074581;28;69587;-37
2021/06/06 03:52:44;;;;;;;20.33;4.63;;;;;;;30.48;47.45;100742.78;5065295;27;65668;-38
2021/06/06 03:55:23;;;;;;;12.02;4.53;;;;;;;30.15;48.05;100683.50;5067288;28;69431;-38
2021/06/06 03:57:57;;;;;;;21.48;4.38;;;;;;;30.43;48.13;100729.09;5075095;28;65980;-37
2021/06/06 04:00:37;;;;;;;26.23;4.82;;;;;;;30.41;47.39;100741.19;5071905;28;70090;-37
2021/06/06 04:03:13;;;;;;;7.65;5.38;;;;;;;30.38;47.28;100737.03;5040456;28;65512;-37
2021/06/06 04:05:48;;;;;;;14.77;4.55;;;;;;;30.36;46.63;100727.47;5062218;28;70029;-37
2021/06/06 04:08:35;;;;;;;7.32;4.53;;;;;;;30.28;45.91;100729.44;5051396;28;65953;-39
2021/06/06 04:11:12;;;;;;;4.75;4.13;;;;;;;30.23;45.62;100728.44;5075623;27;69151;-37
2021/06/06 04:13:51;;;;;;;4.78;4.25;;;;;;;30.22;45.06;100730.28;5076575;27;66152;-39
2021/06/06 04:16:39;;;;;;;13.48;4.53;;;;;;;30.20;46.37;100726.09;5077569;28;69358;-37
2021/06/06 04:19:16;;;;;;;4.90;3.78;;;;;;;30.15;46.17;100715.97;5075706;28;66476;-38
2021/06/06 04:21:50;;;;;;;6.78;4.10;;;;;;;30.20;45.17;100721.53;5059390;28;70021;-37
2021/06/06 04:24:26;;;;;;;8.07;4.13;;;;;;;30.21;45.42;100715.06;5080901;27;65953;-40
2021/06/06 04:27:03;;;;;;;9.95;4.18;;;;;;;30.15;44.80;100694.31;5060973;28;70326;-39
2021/06/06 04:29:40;;;;;;;19.17;4.35;;;;;;;30.14;45.00;100703.47;5074522;28;65493;-37
2021/06/06 04:32:16;;;;;;;12.48;3.80;;;;;;;29.98;44.10;100690.50;5058901;28;69578;-39
2021/06/06 04:34:50;;;;;;;14.75;4.28;;;;;;;30.09;44.43;100699.75;5074524;28;64969;-38
2021/06/06 04:37:23;;;;;;;15.57;4.63;;;;;;;30.01;43.38;100703.59;5046055;28;69415;-38
2021/06/06 04:40:00;;;;;;;12.18;4.47;;;;;;;30.03;44.86;100696.06;5077192;28;66090;-38
2021/06/06 04:42:33;;;;;;;13.52;4.35;;;;;;;30.03;43.42;100693.34;5074740;28;70135;-38
2021/06/06 04:45:11;;;;;;;10.82;4.25;;;;;;;29.90;42.52;100685.34;5073886;28;66334;-38
2021/06/06 04:47:56;;;;;;;11.70;4.45;;;;;;;30.00;43.27;100685.69;5074797;27;69733;-37
2021/06/06 04:50:29;;;;;;;5.70;4.07;;;;;;;29.97;42.87;100691.53;5060587;28;65466;-38
2021/06/06 04:53:03;;;;;;;10.48;4.43;;;;;;;29.95;42.43;100672.84;5070611;27;69175;-38
2021/06/06 04:55:36;;;;;;;7.50;4.05;;;;;;;29.96;43.36;100681.78;5075861;27;65230;-38
2021/06/06 04:58:16;;;;;;;4.57;3.75;;;;;;;30.01;42.98;100681.94;5081815;27;70062;-39
2021/06/06 05:00:59;;;;;;;4.38;3.80;;;;;;;29.99;42.68;100675.91;5079957;27;65358;-39
2021/06/06 05:03:35;;;;;;;4.70;4.25;;;;;;;29.97;42.88;100676.13;5073767;28;70152;-40
2021/06/06 05:06:11;;;;;;;4.20;3.90;;;;;;;29.96;42.71;100676.34;5056824;28;66607;-38
2021/06/06 05:08:48;;;;;;;4.15;3.75;;;;;;;29.95;42.11;100680.09;5072241;27;70116;-39
2021/06/06 05:11:21;;;;;;;4.72;4.32;;;;;;;29.84;42.56;100671.66;5072781;28;66422;-39
2021/06/06 05:13:55;;;;;;;4.90;4.50;;;;;;;29.88;42.54;100676.63;5069675;28;70143;-39
2021/06/06 05:16:34;;;;;;;4.05;3.72;;;;;;;29.67;42.24;100665.13;5075441;27;66023;-38
2021/06/06 05:19:17;;;;;;;8.38;4.28;;;;;;;29.64;47.31;100656.59;5053092;28;70066;-37
2021/06/06 05:21:50;;;;;;;4.85;4.38;;;;;;;29.94;46.29;100691.97;5042748;28;65354;-38
2021/06/06 05:24:23;;;;;;;7.25;4.53;;;;;;;29.92;44.76;100680.53;5072979;27;69320;-37
2021/06/06 05:26:59;;;;;;;4.55;4.15;;;;;;;29.86;44.12;100667.91;5070154;28;65274;-36
2021/06/06 05:29:31;;;;;;;6.32;4.20;;;;;;;29.84;43.29;100679.75;5069393;28;69286;-38
2021/06/06 05:42:39;;;;;;;7.63;3.92;;;;;;;29.70;43.30;100653.88;5069854;28;65571;-38
2021/06/06 05:45:18;;;;;;;4.15;3.85;;;;;;;29.75;43.54;100650.50;5055663;28;69069;-37
2021/06/06 05:47:57;;;;;;;4.90;4.50;;;;;;;29.74;42.84;100638.84;5056741;28;64740;-38
2021/06/06 05:50:42;;;;;;;5.60;4.68;;;;;;;29.80;43.54;100639.84;5047127;28;69632;-38
2021/06/06 05:53:49;;;;;;;8.63;4.38;;;;;;;29.76;42.48;100631.34;5074508;28;65512;-38
2021/06/06 05:56:28;;;;;;;4.10;3.80;;;;;;;29.78;42.57;100628.41;5051906;28;69430;-38
2021/06/06 05:59:04;;;;;;;7.80;3.47;;;;;;;29.76;42.96;100617.84;5069060;27;66172;-37
2021/06/06 06:01:41;;;;;;;4.55;4.05;;;;;;;29.75;42.90;100601.81;5067804;27;68587;-37
2021/06/06 06:04:21;;;;;;;5.00;4.20;;;;;;;29.78;42.70;100596.81;5072074;28;65514;-38
2021/06/06 06:06:57;;;;;;;4.07;3.70;;;;;;;29.77;42.07;100583.50;5058941;28;69918;-38
2021/06/06 06:09:35;;;;;;;4.28;3.72;;;;;;;29.73;41.72;100585.84;5074806;28;65254;-39
2021/06/06 06:12:09;;;;;;;4.05;3.75;;;;;;;29.69;41.72;100576.50;5071385;27;69790;-36
2021/06/06 06:14:44;;;;;;;7.32;4.07;;;;;;;29.70;41.95;100577.31;5071633;28;66267;-38
2021/06/06 06:17:27;;;;;;;18.08;4.15;;;;;;;29.70;41.07;100580.03;5078544;27;70117;-38
2021/06/06 06:19:59;;;;;;;8.70;4.15;;;;;;;29.62;41.89;100571.13;5041456;28;65754;-39
2021/06/06 06:22:36;;;;;;;6.05;4.10;;;;;;;29.66;41.12;100579.66;5068801;28;69597;-38
2021/06/06 06:25:11;;;;;;;4.53;4.13;;;;;;;29.35;41.36;100527.25;5070422;28;65924;-39
2021/06/06 06:27:49;;;;;;;8.68;4.85;;;;;;;29.36;40.15;100534.31;5073312;28;69901;-38
2021/06/06 06:30:44;;;;;;;8.07;4.50;;;;;;;29.34;40.04;100540.97;5072335;27;66053;-38
2021/06/06 06:33:27;;;;;;;5.25;4.50;;;;;;;29.58;40.40;100574.47;5059562;28;69010;-42
2021/06/06 06:35:58;;;;;;;;;;;;;;;29.25;39.72;100566.56;5070777;28;66465;-38
2021/06/06 06:38:33;;;;;;;9.73;4.30;;;;;;;29.51;41.08;100579.09;5060717;28;70189;-39
2021/06/06 06:41:06;;;;;;;4.75;4.35;;;;;;;29.48;39.74;100572.25;5067600;28;65617;-39
2021/06/06 06:43:42;;;;;;;4.50;4.18;;;;;;;29.51;40.60;100576.41;5072237;28;69789;-39
2021/06/06 06:46:14;;;;;;;13.55;4.57;;;;;;;29.48;40.14;100563.34;5075862;27;65456;-38
2021/06/06 06:48:48;;;;;;;;;;;;;;;29.17;39.51;100556.88;5070852;28;69271;-39
2021/06/06 06:51:29;;;;;;;7.13;4.35;;;;;;;29.44;40.16;100551.28;5074260;27;65949;-37
2021/06/06 06:54:08;;;;;;;10.13;4.28;;;;;;;29.42;39.64;100531.75;5077912;28;70545;-38
2021/06/06 06:56:41;;;;;;;7.45;4.30;;;;;;;29.45;39.92;100534.03;5069464;28;66242;-39
2021/06/06 06:59:21;;;;;;;6.05;4.30;;;;;;;29.47;39.91;100529.22;5071351;28;69855;-40
2021/06/06 07:02:01;;;;;;;9.38;4.30;;;;;;;29.22;39.73;100481.41;5070435;28;66395;-37
2021/06/06 07:04:33;;;;;;;7.32;4.60;;;;;;;29.43;39.88;100522.63;5069725;28;71689;-37
2021/06/06 07:07:08;;;;;;;4.55;4.15;;;;;;;29.43;39.46;100523.44;5071273;28;65374;-38
2021/06/06 07:09:42;;;;;;;6.72;3.88;;;;;;;29.42;40.41;100527.22;5057100;28;69166;-36
2021/06/06 07:12:14;;;;;;;6.78;4.25;;;;;;;29.47;40.11;100548.16;5071706;27;66061;-37
2021/06/06 07:14:46;;;;;;;4.38;3.97;;;;;;;29.44;40.16;100554.00;5073703;28;70103;-37
2021/06/06 07:17:22;;;;;;;4.30;3.90;;;;;;;29.45;40.36;100542.13;5079700;28;66186;-37
2021/06/06 07:19:58;;;;;;;4.65;4.25;;;;;;;29.45;40.45;100542.97;5081447;27;70575;-38
2021/06/06 07:22:31;;;;;;;5.05;4.72;;;;;;;29.45;40.11;100559.19;5061783;28;66974;-37
2021/06/06 07:25:08;;;;;;;6.88;4.45;;;;;;;29.13;38.96;100509.72;5077062;27;69981;-35
2021/06/06 07:27:44;;;;;;;5.60;5.15;;;;;;;29.43;39.66;100553.16;5078678;28;66178;-36
2021/06/06 07:30:32;;;;;;;14.65;5.65;;;;;;;29.38;39.17;100559.22;5076475;27;70029;-37
2021/06/06 07:33:07;;;;;;;6.22;5.72;;;;;;;29.41;39.59;100552.56;5077122;28;66098;-37
2021/06/06 07:35:40;;;;;;;8.85;5.72;;;;;;;29.42;40.11;100548.81;5072852;27;69947;-38
2021/06/06 07:38:21;;;;;;;6.35;5.57;;;;;;;29.36;39.67;100528.91;5075332;27;66493;-38
2021/06/06 07:40:55;;;;;;;12.38;6.13;;;;;;;29.37;39.46;100518.94;5069180;27;70563;-37
2021/06/06 07:43:29;;;;;;;20.17;6.13;;;;;;;29.32;40.20;100516.06;5073310;27;66814;-37
2021/06/06 07:46:10;;;;;;;11.02;6.00;;;;;;;29.26;39.77;100536.66;5074299;28;70651;-36
2021/06/06 07:48:45;;;;;;;9.68;6.63;;;;;;;29.33;39.99;100566.31;5073153;27;65571;-36
2021/06/06 07:51:18;;;;;;;16.33;7.18;;;;;;;29.29;39.87;100575.91;5073613;28;69909;-36
2021/06/06 07:53:53;;;;;;;7.60;6.50;;;;;;;29.25;39.48;100575.50;5069439;28;66289;-37
2021/06/06 07:56:27;;;;;;;18.08;7.35;;;;;;;29.03;40.28;100533.63;5044366;28;70368;-37
2021/06/06 07:58:59;;;;;;;13.07;8.27;;;;;;;29.46;51.47;100576.22;5058025;28;65892;-39
2021/06/06 08:01:32;;;;;;;17.10;8.32;;;;;;;29.64;54.62;100568.22;5073885;28;69975;-38
2021/06/06 08:04:03;;;;;;;;;;;;;;;29.73;58.05;100575.03;5074394;28;66350;-37
2021/06/06 08:06:35;;;;;;;36.15;7.70;;;;;;;30.16;54.71;100586.94;5074619;27;70981;-39
2021/06/06 08:09:08;;;;;;;11.05;8.48;;;;;;;30.39;60.06;100580.91;5069122;28;66502;-36
2021/06/06 08:11:41;;;;;;;17.48;8.73;;;;;;;30.54;60.13;100586.78;5073387;28;69963;-38
2021/06/06 08:14:13;;;;;;;24.83;9.07;;;;;;;30.69;60.97;100581.81;5074019;28;66226;-37
2021/06/06 08:16:49;;;;;;;12.13;7.95;;;;;;;30.82;60.58;100569.22;5077405;27;69016;-37
2021/06/06 08:19:27;;;;;;;10.85;8.15;;;;;;;30.58;60.21;100519.47;5076408;27;66054;-36
2021/06/06 08:22:01;;;;;;;13.43;7.97;;;;;;;31.01;60.54;100572.69;5046374;28;69447;-37
2021/06/06 08:24:37;;;;;;;13.82;7.53;;;;;;;31.06;60.69;100570.94;5078786;28;65348;-37
2021/06/06 08:27:09;;;;;;;13.18;6.82;;;;;;;31.12;61.10;100575.47;5074841;28;69059;-36
2021/06/06 08:29:44;;;;;;;11.02;7.50;;;;;;;31.22;62.01;100582.22;5074458;27;65386;-38
2021/06/06 08:32:17;;;;;;;9.75;5.93;;;;;;;30.87;62.33;100529.56;5076531;28;69713;-36
2021/06/06 08:35:00;;;;;;;8.80;5.50;;;;;;;31.20;61.91;100581.63;5072121;28;66497;-36
2021/06/06 08:37:32;;;;;;;9.15;5.70;;;;;;;31.14;61.03;100562.50;5077143;28;70013;-37
2021/06/06 08:40:11;;;;;;;12.65;5.72;;;;;;;30.86;62.88;100497.28;5075138;28;65777;-36
2021/06/06 08:42:47;;;;;;;12.18;4.57;;;;;;;31.26;62.89;100549.03;5071110;28;70466;-35
2021/06/06 08:45:57;;;;;;;15.55;5.00;;;;;;;31.19;63.16;100536.63;5067613;28;65134;-36
2021/06/06 08:48:31;;;;;;;8.65;5.30;;;;;;;31.27;61.70;100549.84;5071669;27;70094;-35
2021/06/06 08:51:31;;;;;;;11.07;4.00;;;;;;;31.07;60.99;100529.28;5057924;28;66136;-36
2021/06/06 08:54:25;;;;;;;4.47;4.17;;;;;;;31.28;61.61;100567.75;5075010;27;70429;-37
2021/06/06 08:57:14;;;;;;;6.65;4.53;;;;;;;30.91;62.01;100511.78;5080173;28;64977;-37
2021/06/06 08:59:59;;;;;;;6.85;4.57;;;;;;;31.14;61.92;100557.09;5078591;28;70398;-36
2021/06/06 09:02:49;;;;;;;17.83;4.72;;;;;;;31.31;62.07;100561.88;5078484;27;65561;-42
2021/06/06 09:05:32;;;;;;;8.10;4.35;;;;;;;30.93;61.30;100495.31;5070357;28;69889;-36
2021/06/06 09:08:18;;;;;;;5.07;4.30;;;;;;;31.25;61.71;100550.06;5071586;28;66696;-36
2021/06/06 09:11:03;;;;;;;8.25;4.70;;;;;;;31.24;61.03;100532.16;5075755;28;70137;-34
2021/06/06 09:13:36;;;;;;;6.28;4.32;;;;;;;31.24;60.37;100528.63;5073190;28;66372;-36
2021/06/06 09:16:25;;;;;;;14.63;5.00;;;;;;;30.91;61.32;100481.16;5071986;27;68931;-36
2021/06/06 09:19:13;;;;;;;8.18;5.65;;;;;;;31.26;61.01;100549.03;5072532;28;66788;-37
2021/06/06 09:22:02;;;;;;;12.68;6.45;;;;;;;31.32;60.58;100539.16;5069893;27;70812;-37
2021/06/06 09:24:43;;;;;;;7.68;7.03;;;;;;;30.97;60.78;100480.25;5079837;28;66563;-37
2021/06/06 09:27:22;;;;;;;9.40;6.53;;;;;;;31.36;61.04;100540.34;5081233;27;70381;-36
2021/06/06 09:30:24;;;;;;;6.63;6.03;;;;;;;31.15;61.18;100531.66;5077640;27;66052;-36
2021/06/06 09:33:20;;;;;;;6.10;4.70;;;;;;;31.31;60.95;100551.03;5070900;28;68966;-36
2021/06/06 09:35:59;;;;;;;7.53;3.85;;;;;;;31.35;59.68;100563.88;5092512;27;65967;-36
2021/06/06 09:38:30;;;;;;;8.60;4.50;;;;;;;31.33;59.98;100562.47;5075088;27;69614;-35
2021/06/06 09:41:14;;;;;;;5.45;3.25;;;;;;;31.32;59.97;100569.78;5076659;28;65385;-39
2021/06/06 09:43:59;;;;;;;4.13;3.80;;;;;;;31.25;59.32;100554.66;5074330;28;69713;-40
2021/06/06 09:46:43;;;;;;;3.83;3.53;;;;;;;31.30;59.48;100554.81;5078610;28;65129;-40
2021/06/06 09:49:44;;;;;;;12.15;4.30;;;;;;;31.24;60.13;100553.03;5076778;28;70144;-40
2021/06/06 09:52:40;;;;;;;11.90;4.75;;;;;;;31.32;59.71;100560.81;5064171;28;65647;-41
2021/06/06 09:55:26;;;;;;;12.25;3.97;;;;;;;31.30;59.47;100554.81;5071611;27;70052;-38
2021/06/06 09:58:19;;;;;;;5.30;4.43;;;;;;;31.27;59.12;100553.38;5072293;27;65677;-40
2021/06/06 10:00:53;;;;;;;6.53;4.72;;;;;;;31.31;59.20;100561.88;5069268;28;69147;-40
2021/06/06 10:03:42;;;;;;;4.93;4.07;;;;;;;31.30;59.30;100560.22;5076657;28;66323;-38
2021/06/06 10:06:47;;;;;;;7.43;3.83;;;;;;;30.92;59.77;100515.31;5078607;27;69090;-38
2021/06/06 10:09:19;;;;;;;6.72;3.50;;;;;;;31.17;59.61;100561.22;5079737;27;66275;-39
2021/06/06 10:12:05;;;;;;;4.38;3.97;;;;;;;31.11;59.55;100562.97;5075145;27;69096;-39
2021/06/06 10:15:09;;;;;;;7.68;3.78;;;;;;;31.10;59.77;100566.75;5079151;27;65857;-38
2021/06/06 10:17:43;;;;;;;8.05;4.65;;;;;;;31.06;59.92;100570.13;5066070;28;69868;-38
2021/06/06 10:20:23;;;;;;;5.00;4.50;;;;;;;31.06;60.17;100581.78;5075900;28;65945;-39
2021/06/06 10:23:12;;;;;;;9.77;4.35;;;;;;;31.05;60.86;100588.28;5072408;28;69983;-39
2021/06/06 10:25:50;;;;;;;6.68;4.40;;;;;;;30.85;61.30;100549.81;5076389;28;65951;-38
2021/06/06 10:28:49;;;;;;;6.50;4.00;;;;;;;30.91;61.11;100562.44;5066958;28;70295;-38
2021/06/06 10:31:24;;;;;;;4.85;4.45;;;;;;;31.07;61.29;100583.47;5074268;27;65293;-38
2021/06/06 10:34:35;;;;;;;4.70;4.35;;;;;;;30.98;61.32;100584.84;5074822;28;69136;-39
2021/06/06 10:37:10;;;;;;;7.18;4.53;;;;;;;30.73;61.34;100539.72;5075843;27;65388;-42
2021/06/06 10:39:54;;;;;;;16.13;4.10;;;;;;;31.12;61.32;100597.16;5068877;27;70577;-39
2021/06/06 10:42:32;;;;;;;4.50;4.07;;;;;;;31.13;61.56;100597.97;5067687;28;65536;-40
2021/06/06 10:45:21;;;;;;;4.85;4.38;;;;;;;31.10;61.16;100599.25;5071581;27;69155;-37
2021/06/06 10:48:29;;;;;;;6.10;4.18;;;;;;;31.01;61.49;100594.38;5074230;27;66000;-38
2021/06/06 10:51:33;;;;;;;9.32;5.00;;;;;;;30.81;62.06;100583.78;5066530;28;70636;-39
2021/06/06 10:54:36;;;;;;;7.65;5.50;;;;;;;30.98;62.00;100622.78;5072045;28;66115;-38
2021/06/06 10:57:34;;;;;;;6.05;5.50;;;;;;;31.08;61.81;100622.22;5057924;28;69809;-39
2021/06/06 11:00:21;;;;;;;6.32;5.82;;;;;;;31.03;62.17;100631.00;5063749;27;65307;-36
2021/06/06 11:02:52;;;;;;;7.00;6.53;;;;;;;31.08;61.79;100622.22;5075493;28;69740;-37
2021/06/06 11:05:57;;;;;;;6.20;5.70;;;;;;;31.02;62.30;100618.53;5076742;27;65967;-34
2021/06/06 11:08:33;;;;;;;7.47;6.78;;;;;;;31.04;62.35;100624.56;5066926;28;70611;-33
2021/06/06 11:11:20;;;;;;;12.93;7.50;;;;;;;30.90;62.17;100599.53;5071689;28;64753;-33
2021/06/06 11:14:18;;;;;;;11.20;6.88;;;;;;;30.65;62.62;100586.03;5070690;28;70674;-33
2021/06/06 11:16:53;;;;;;;9.68;6.95;;;;;;;31.03;62.52;100624.78;5077741;27;65967;-34
2021/06/06 11:19:32;;;;;;;9.07;8.38;;;;;;;30.98;63.32;100625.47;5072610;27;70029;-33
2021/06/06 11:22:07;;;;;;;19.55;8.43;;;;;;;31.04;62.80;100632.69;5074724;28;66041;-37
2021/06/06 11:24:42;;;;;;;13.50;7.75;;;;;;;31.02;61.43;100639.38;5073004;27;69944;-35
2021/06/06 11:27:19;;;;;;;10.38;7.70;;;;;;;30.92;58.55;100638.03;5070874;28;65188;-35
2021/06/06 11:30:22;;;;;;;19.58;8.00;;;;;;;30.66;56.52;100646.41;5077975;28;69877;-36
2021/06/06 11:33:03;;;;;;;13.68;6.72;;;;;;;30.55;54.41;100645.28;5072633;28;65903;-35
2021/06/06 11:35:36;;;;;;;19.88;6.40;;;;;;;30.41;54.22;100643.75;5075913;28;70328;-35
2021/06/06 11:38:35;;;;;;;27.77;6.38;;;;;;;30.26;53.13;100636.81;5074387;27;65359;-36
2021/06/06 11:41:25;;;;;;;17.52;6.63;;;;;;;30.04;52.14;100657.97;5074697;27;69014;-36
2021/06/06 11:44:10;;;;;;;12.52;6.22;;;;;;;29.73;51.71;100607.47;5076786;28;65461;-36
2021/06/06 11:47:01;;;;;;;14.80;6.15;;;;;;;29.89;51.11;100662.03;5073533;28;70198;-35
2021/06/06 11:50:07;;;;;;;15.95;5.93;;;;;;;29.73;49.54;100660.72;5074790;27;66444;-35
2021/06/06 11:53:03;;;;;;;17.63;6.47;;;;;;;28.99;49.17;100564.81;5071272;27;69141;-36
2021/06/06 11:55:43;;;;;;;21.75;5.50;;;;;;;29.25;49.74;100613.31;5069574;28;65723;-35
2021/06/06 11:58:27;;;;;;;26.98;8.70;;;;;;;29.55;48.20;100683.03;5071581;28;69827;-39
2021/06/06 12:01:18;;;;;;;22.80;8.48;;;;;;;29.46;47.78;100687.03;5076542;28;66099;-38
2021/06/06 12:03:53;;;;;;;14.10;7.45;;;;;;;29.16;47.68;100647.84;5078459;27;70544;-39
2021/06/06 12:06:26;;;;;;;19.35;8.32;;;;;;;29.37;48.21;100692.69;5077616;27;66238;-39
2021/06/06 12:09:18;;;;;;;20.95;7.85;;;;;;;29.15;47.64;100656.19;5073240;27;70007;-38
2021/06/06 12:11:52;;;;;;;17.05;6.70;;;;;;;29.34;47.74;100714.72;5076072;28;66042;-35
2021/06/06 12:14:28;;;;;;;25.63;7.30;;;;;;;29.29;45.55;100711.00;5073929;28;69869;-35
2021/06/06 12:17:04;;;;;;;17.10;6.82;;;;;;;29.26;45.36;100720.34;5070927;28;65269;-36
2021/06/06 12:19:50;;;;;;;26.77;7.55;;;;;;;29.10;44.85;100701.91;5075112;28;69779;-37
2021/06/06 12:22:39;;;;;;;33.78;7.65;;;;;;;29.07;43.61;100711.28;5076306;27;65192;-36
2021/06/06 12:25:28;;;;;;;21.13;6.90;;;;;;;29.02;43.66;100713.75;5073589;27;70154;-36
2021/06/06 12:28:14;;;;;;;19.98;6.88;;;;;;;29.02;43.96;100715.63;5074302;28;65523;-36
2021/06/06 12:31:02;;;;;;;20.83;6.57;;;;;;;28.64;43.56;100665.00;5074577;28;69891;-37
2021/06/06 12:33:42;;;;;;;24.75;7.60;;;;;;;28.92;45.23;100730.41;5075547;28;65346;-36
2021/06/06 12:36:34;;;;;;;25.20;8.27;;;;;;;28.62;46.28;100664.41;5076109;27;70646;-36
2021/06/06 12:39:09;;;;;;;12.25;7.75;;;;;;;28.68;48.24;100682.47;5093326;27;66005;-36